Logo AVAMET
Benvolgut visitant, si us plau, ingressa Recuperar contrasenya

Xodos

Dades diàries. Acumulats / Últims 30 dies disponibles

Data Temperatura (°C) Humitat rel. (%) Pressió rel. (hPa) Vent (km/h) Precipi-
tació (mm)
Mínima Mitjana Màxima Mínima Mitjana Màxima Mínima Mitjana Màxima Predom. Mitjana Ràfega
màxima
Mínima Mitjana Màxima Mínima Mitjana Màxima
Dades mensuals acumulades fins l'últim dia disponible
01/2018 1,2 4,4 10,9 7,1 4,4 10,4 19,1   17,3 99,8 27,4
Dades anuals acumulades fins l'últim dia disponible
2018 1,2 4,4 10,9 7,1 4,4 10,4 19,1   17,3 99,8 27,4
Últims 30 dies disponibles
17-01-2018 6,7     9,7     12,9 WNW 30,6 99,8 0,0
16-01-2018 6,1     11,2     16,5 W 11,9 54,7 0,0
15-01-2018 1,6     4,6     7,9 N 13,5 51,5 0,0
14-01-2018 1,8     3,4     6,3 WNW 18,2 64,4 0,0
13-01-2018 2,1     3,5     5,8 SE 6,1 35,4 0,0
12-01-2018 2,4     4,6     9,2 NNW 20,4 80,6 0,0
11-01-2018 2,3     3,3     4,7 WNW 40,6 93,3 0,0
10-01-2018 5,4     6,9     10,1 WNW 10,1 54,7 0,0
09-01-2018 2,8     5,1     7,4 W 4,2 41,8 0,0
08-01-2018 1,2     3,8     7,1 WNW 5,3 24,1 0,0
07-01-2018 1,2     2,8     4,4 SE 5,1 20,9 0,0
06-01-2018 1,9     5,6     7,7 WSW 10,6 49,9 27,4
05-01-2018 7,3     10,6     13,9 WNW 6,9 33,8 0,0
04-01-2018 10,9     14,2     19,1 WNW 16,4 77,2 0,0
03-01-2018 10,8     12,9     16,3 WNW 34,8 93,3 0,0
02-01-2018 7,3     10,4     14,1 WNW 24,3 96,6 0,0
01-01-2018 3,6     7,9     12,6 WNW 34,4 98,2 0,0
31-12-2017 5,9     11,7     17,4 15 42 69 1.017 1.021 1.025 OSO 12,3 92,5 0,0
30-12-2017 9,3     13,4     17,4 WNW 15,4 70,8 0,0
29-12-2017 6,7     9,7     12,5 NW 16,9 86,9 0,0
28-12-2017 4,3     7,6     10,9 WNW 34,1 88,5 0,0
27-12-2017 3,4     5,4     7,5 WNW 46,0 119,1 0,0
26-12-2017 4,1     6,1     7,8 W 17,9 82,1 0,0
25-12-2017 5,3     7,6     9,6 SE 6,4 56,3 0,0
24-12-2017 7,5     9,8     12,6 NW 3,2 17,7 0,0
23-12-2017 5,3     7,3     10,2 SE 3,5 20,9 0,0
22-12-2017 7,7     10,7     14,2 SE 6,9 37,0 0,0
21-12-2017 3,0     6,4     11,0 W 3,9 19,3 0,0
20-12-2017 1,9     4,8     10,4 WNW 4,2 22,5 0,0
19-12-2017 2,4     4,9     8,1 N 11,9 80,5 0,0
Últims 13 mesos disponibles
12/2017 -2,7 3,7 9,4 6,5 0,8 9,9 17,4 42 42 42 1.021 1.021 1.021 17,3 119,1 0,2
11/2017 0,3 6,5 13,1 9,6 5,8 12,9 18,5 43 43 43 1.015 1.015 1.015 14,8 96,6 2,0
10/2017 8,4 12,8 18,3 15,7 12,9 19,2 24,3 7,0 54,7 1,0
09/2017 8,2 13,2 17,3 16,5 14,3 20,3 26,7 90 90 90 1.020 1.020 1.020 9,6 92,7 48,1
08/2017 9,6 17,7 24,3 21,1 18,4 24,8 30,2 77 77 77 1.018 1.018 1.018 9,1 85,3 52,9
07/2017 9,5 17,5 22,3 21,1 18,3 24,7 29,1 73 73 73 1.010 1.010 1.010 8,8 86,9 5,8
06/2017 9,7 17,1 23,1 20,5 15,3 24,0 28,4 48 48 48 1.015 1.015 1.015 8,8 96,6 33,7
05/2017 3,3 11,7 16,9 15,0 12,4 18,5 23,9 78 78 78 1.020 1.020 1.020 9,2 70,8 17,5
04/2017 0,9 7,8 14,9 10,9 6,2 14,3 21,1 73 73 73 1.013 1.013 1.013 10,1 75,9 24,4
03/2017 0,1 6,9 17,2 10,3 5,6 13,8 23,2 56 56 56 1.021 1.021 1.021 13,0 138,4 85,2
02/2017 0,6 4,4 10,1 7,2 5,1 10,3 19,3 13,8 119,1 7,0
01/2017 -4,7 2,2 8,3 5,2 -0,2 8,4 15,8 17,4 106,2 160,4
12/2016 1,1 5,6 12,0 7,7 3,8 10,2 17,0 9,1 78,9 80,8
Tots els anys disponibles
2017 -4,7 10,1 24,3 13,3 -0,2 16,8 30,2 42 64 90 1.010 1.017 1.021 11,6 138,4 438,2
2016 1,1 9,3 15,8 12,0 3,8 15,2 28,5 8,5 90,1 243,2
Temperatura (°C)
Humitat relativa (%)
Velocitat del vent (km/h) i direcció (°)
Pressió (hPa) i precipitació (mm)
Nota sobre les dades: s'avisa a l'usuari de la provisionalitat i no oficialitat d'aquestes dades
Logo AVAMET blanc
Llicència de Creative CommonsLa web d'AVAMET i els seus continguts estan subjectes a una llicència de
Reconeixement - No Comercial - Compartir igual
Properes estacions: Castell de Castells (AVAMET: nova estació i canvi d'ubicació), Sinarcas - La Raílla (soci)  - - - - -  Últimes estacions: Ontinyent - C. Pureza de María (soci), Albuixec (Inforatge), Petrer (Inforatge), Calp (Inforatge), Xàtiva - Ajuntament (Inforatge), El Toro - Cerrogil (soci), Altura - Masía de Uñoz (soci) - - - - - - - - - - - - Properes estacions: Castell de Castells (AVAMET: nova estació i canvi d'ubicació), Sinarcas - La Raílla (soci)  - - - - -  Últimes estacions: Ontinyent - C. Pureza de María (soci), Albuixec (Inforatge), Petrer (Inforatge), Calp (Inforatge), Xàtiva - Ajuntament (Inforatge), El Toro - Cerrogil (soci), Altura - Masía de Uñoz (soci)